Time,TemperatureF,DewpointF,PressureIn,WindDirection,WindDirectionDegrees,WindSpeedMPH,WindSpeedGustMPH,Humidity,HourlyPrecipIn,Conditions,Clouds,dailyrainin,SolarRadiationWatts/m^2,SoftwareType,DateUTC
2013-11-08 00:03:00,49.0,37.0,-100.00,North,353,4.0,10.0,64,0.00,,,0.04,7.000000,,2013-11-08 06:03:00,
2013-11-08 00:13:00,49.0,37.0,-100.00,North,353,4.0,10.0,64,0.00,,,0.04,7.000000,,2013-11-08 06:13:00,
2013-11-08 00:23:00,49.0,37.0,-100.00,North,353,4.0,10.0,64,0.00,,,0.04,7.000000,,2013-11-08 06:23:00,
2013-11-08 00:52:00,47.0,36.0,-100.00,North,2,4.0,8.0,65,0.00,,,0.04,7.000000,,2013-11-08 06:52:00,
2013-11-08 01:02:00,47.0,36.0,-100.00,North,2,4.0,8.0,65,0.00,,,0.04,7.000000,,2013-11-08 07:02:00,
2013-11-08 01:12:00,47.0,36.0,-100.00,North,2,4.0,8.0,65,0.00,,,0.04,7.000000,,2013-11-08 07:12:00,
2013-11-08 01:22:00,47.0,36.0,-100.00,North,2,4.0,8.0,65,0.00,,,0.04,7.000000,,2013-11-08 07:22:00,
2013-11-08 01:52:00,47.0,36.0,-100.00,North,352,3.0,9.0,65,0.00,,,0.04,7.000000,,2013-11-08 07:52:00,
2013-11-08 02:02:00,47.0,36.0,-100.00,North,352,3.0,9.0,65,0.00,,,0.04,7.000000,,2013-11-08 08:02:00,
2013-11-08 02:12:00,47.0,36.0,-100.00,North,352,3.0,9.0,65,0.00,,,0.04,7.000000,,2013-11-08 08:12:00,
2013-11-08 02:22:00,47.0,36.0,-100.00,North,352,3.0,9.0,65,0.00,,,0.04,7.000000,,2013-11-08 08:22:00,
2013-11-08 02:52:00,47.0,35.0,-100.00,North,1,4.0,10.0,63,0.00,,,-99.99,9.000000,,2013-11-08 08:52:00,
2013-11-08 03:03:00,47.0,35.0,-100.00,North,1,4.0,10.0,63,0.00,,,-99.99,9.000000,,2013-11-08 09:03:00,
2013-11-08 03:12:00,47.0,35.0,-100.00,North,1,4.0,10.0,63,0.00,,,-99.99,9.000000,,2013-11-08 09:12:00,
2013-11-08 03:22:00,47.0,35.0,-100.00,North,1,4.0,10.0,63,0.00,,,-99.99,9.000000,,2013-11-08 09:22:00,
2013-11-08 03:54:00,46.0,35.0,-100.00,North,358,4.0,7.0,65,0.00,,,0.04,10.000000,,2013-11-08 09:54:00,
2013-11-08 04:03:00,46.0,35.0,-100.00,North,358,4.0,7.0,65,0.00,,,0.04,10.000000,,2013-11-08 10:03:00,
2013-11-08 04:12:00,46.0,35.0,-100.00,North,358,4.0,7.0,65,0.00,,,0.04,10.000000,,2013-11-08 10:12:00,
2013-11-08 04:23:00,46.0,35.0,-100.00,North,358,4.0,7.0,65,0.00,,,0.04,10.000000,,2013-11-08 10:23:00,
2013-11-08 04:53:00,45.0,34.0,-100.00,NNE,12,3.0,9.0,65,0.00,,,0.00,5.000000,,2013-11-08 10:53:00,
2013-11-08 05:02:00,45.0,34.0,-100.00,NNE,12,3.0,9.0,65,0.00,,,0.00,5.000000,,2013-11-08 11:02:00,
2013-11-08 05:12:00,45.0,34.0,-100.00,NNE,12,3.0,9.0,65,0.00,,,0.00,5.000000,,2013-11-08 11:12:00,
2013-11-08 05:22:00,45.0,34.0,-100.00,NNE,12,3.0,9.0,65,0.00,,,0.00,5.000000,,2013-11-08 11:22:00,
2013-11-08 05:52:00,45.0,33.0,-100.00,NNE,17,5.0,12.0,62,0.00,,,0.00,7.000000,,2013-11-08 11:52:00,
2013-11-08 06:02:00,45.0,33.0,-100.00,NNE,17,5.0,12.0,62,0.00,,,0.00,7.000000,,2013-11-08 12:02:00,
2013-11-08 06:11:00,45.0,33.0,-100.00,NNE,17,5.0,12.0,62,0.00,,,0.00,7.000000,,2013-11-08 12:11:00,
2013-11-08 06:21:00,45.0,33.0,-100.00,NNE,17,5.0,12.0,62,0.00,,,0.00,7.000000,,2013-11-08 12:21:00,
2013-11-08 06:52:00,45.0,32.0,-100.00,NNE,20,5.0,13.0,60,0.00,,,0.00,9.000000,,2013-11-08 12:52:00,
2013-11-08 07:01:00,45.0,32.0,-100.00,NNE,20,5.0,13.0,60,0.00,,,0.00,9.000000,,2013-11-08 13:01:00,
2013-11-08 07:11:00,45.0,32.0,-100.00,NNE,20,5.0,13.0,60,0.00,,,0.00,9.000000,,2013-11-08 13:11:00,
2013-11-08 07:21:00,45.0,32.0,-100.00,NNE,20,5.0,13.0,60,0.00,,,0.00,9.000000,,2013-11-08 13:21:00,
2013-11-08 07:52:00,49.0,32.0,-100.00,NNE,21,6.0,13.0,52,0.00,,,0.00,110.000000,,2013-11-08 13:52:00,
2013-11-08 08:02:00,49.0,32.0,-100.00,NNE,21,6.0,13.0,52,0.00,,,0.00,110.000000,,2013-11-08 14:02:00,
2013-11-08 08:11:00,49.0,32.0,-100.00,NNE,21,6.0,13.0,52,0.00,,,0.00,110.000000,,2013-11-08 14:11:00,
2013-11-08 08:22:00,49.0,32.0,-100.00,NNE,21,6.0,13.0,52,0.00,,,0.00,110.000000,,2013-11-08 14:22:00,
2013-11-08 08:52:00,54.0,31.0,-100.00,NNE,25,6.0,14.0,42,0.00,,,0.00,352.000000,,2013-11-08 14:52:00,
2013-11-08 09:01:00,54.0,31.0,-100.00,NNE,25,6.0,14.0,42,0.00,,,0.00,352.000000,,2013-11-08 15:01:00,
2013-11-08 09:11:00,54.0,31.0,-100.00,NNE,25,6.0,14.0,42,0.00,,,0.00,352.000000,,2013-11-08 15:11:00,
2013-11-08 09:22:00,54.0,31.0,-100.00,NNE,25,6.0,14.0,42,0.00,,,0.00,352.000000,,2013-11-08 15:22:00,
2013-11-08 09:53:00,57.0,31.0,-100.00,NE,42,9.0,21.0,37,0.00,,,0.00,558.000000,,2013-11-08 15:53:00,
2013-11-08 10:03:00,57.0,31.0,-100.00,NE,42,9.0,21.0,37,0.00,,,0.00,558.000000,,2013-11-08 16:03:00,
2013-11-08 10:13:00,57.0,31.0,-100.00,NE,42,9.0,21.0,37,0.00,,,0.00,558.000000,,2013-11-08 16:13:00,
2013-11-08 10:23:00,57.0,31.0,-100.00,NE,42,9.0,21.0,37,0.00,,,0.00,558.000000,,2013-11-08 16:23:00,
2013-11-08 10:53:00,61.0,30.0,-100.00,NNE,33,7.0,18.0,31,0.00,,,0.00,714.000000,,2013-11-08 16:53:00,
2013-11-08 11:02:00,61.0,30.0,-100.00,NNE,33,7.0,18.0,31,0.00,,,0.00,714.000000,,2013-11-08 17:02:00,
2013-11-08 11:12:00,61.0,30.0,-100.00,NNE,33,7.0,18.0,31,0.00,,,0.00,714.000000,,2013-11-08 17:12:00,
2013-11-08 11:22:00,61.0,30.0,-100.00,NNE,33,7.0,18.0,31,0.00,,,0.00,714.000000,,2013-11-08 17:22:00,
2013-11-08 11:53:00,64.0,31.0,-100.00,NE,38,7.0,17.0,29,0.00,,,0.00,802.000000,,2013-11-08 17:53:00,
2013-11-08 12:02:00,64.0,31.0,-100.00,NE,38,7.0,17.0,29,0.00,,,0.00,802.000000,,2013-11-08 18:02:00,
2013-11-08 12:12:00,64.0,31.0,-100.00,NE,38,7.0,17.0,29,0.00,,,0.00,802.000000,,2013-11-08 18:12:00,
2013-11-08 12:22:00,64.0,31.0,-100.00,NE,38,7.0,17.0,29,0.00,,,0.00,802.000000,,2013-11-08 18:22:00,
2013-11-08 12:53:00,65.0,31.0,-100.00,NNE,30,7.0,16.0,28,0.00,,,0.00,816.000000,,2013-11-08 18:53:00,
2013-11-08 13:02:00,65.0,31.0,-100.00,NNE,30,7.0,16.0,28,0.00,,,0.00,816.000000,,2013-11-08 19:02:00,
2013-11-08 13:12:00,65.0,31.0,-100.00,NNE,30,7.0,16.0,28,0.00,,,0.00,816.000000,,2013-11-08 19:12:00,
2013-11-08 13:22:00,65.0,31.0,-100.00,NNE,30,7.0,16.0,28,0.00,,,0.00,816.000000,,2013-11-08 19:22:00,
2013-11-08 13:53:00,66.0,31.0,-100.00,North,4,7.0,16.0,27,0.00,,,0.00,745.000000,,2013-11-08 19:53:00,
2013-11-08 14:02:00,66.0,31.0,-100.00,North,4,7.0,16.0,27,0.00,,,0.00,745.000000,,2013-11-08 20:02:00,
2013-11-08 14:12:00,66.0,31.0,-100.00,North,4,7.0,16.0,27,0.00,,,0.00,745.000000,,2013-11-08 20:12:00,
2013-11-08 14:22:00,66.0,31.0,-100.00,North,4,7.0,16.0,27,0.00,,,0.00,745.000000,,2013-11-08 20:22:00,
2013-11-08 14:53:00,67.0,32.0,-100.00,NNE,16,5.0,16.0,27,0.00,,,0.00,571.000000,,2013-11-08 20:53:00,
2013-11-08 15:02:00,67.0,32.0,-100.00,NNE,16,5.0,16.0,27,0.00,,,0.00,571.000000,,2013-11-08 21:02:00,
2013-11-08 15:12:00,67.0,32.0,-100.00,NNE,16,5.0,16.0,27,0.00,,,0.00,571.000000,,2013-11-08 21:12:00,
2013-11-08 15:22:00,67.0,32.0,-100.00,NNE,16,5.0,16.0,27,0.00,,,0.00,571.000000,,2013-11-08 21:22:00,
2013-11-08 15:54:00,67.0,33.0,-100.00,NNE,21,4.0,16.0,28,0.00,,,0.00,419.000000,,2013-11-08 21:54:00,
2013-11-08 16:04:00,67.0,33.0,-100.00,NNE,21,4.0,16.0,28,0.00,,,0.00,419.000000,,2013-11-08 22:04:00,
2013-11-08 16:13:00,67.0,33.0,-100.00,NNE,21,4.0,16.0,28,0.00,,,0.00,419.000000,,2013-11-08 22:13:00,
2013-11-08 16:24:00,67.0,33.0,-100.00,NNE,21,4.0,16.0,28,0.00,,,0.00,419.000000,,2013-11-08 22:24:00,
2013-11-08 16:53:00,65.0,35.0,-100.00,NNE,21,3.0,12.0,33,0.00,,,0.00,209.000000,,2013-11-08 22:53:00,
2013-11-08 17:03:00,65.0,35.0,-100.00,NNE,21,3.0,12.0,33,0.00,,,0.00,209.000000,,2013-11-08 23:03:00,
2013-11-08 17:12:00,65.0,35.0,-100.00,NNE,21,3.0,12.0,33,0.00,,,0.00,209.000000,,2013-11-08 23:12:00,
2013-11-08 17:22:00,65.0,35.0,-100.00,NNE,21,3.0,12.0,33,0.00,,,0.00,209.000000,,2013-11-08 23:22:00,
2013-11-08 18:12:00,54.0,40.0,-100.00,NNW,329,0.0,6.0,60,0.00,,,0.00,20.000000,,2013-11-09 00:12:00,
2013-11-08 18:22:00,54.0,40.0,-100.00,NNW,329,0.0,6.0,60,0.00,,,0.00,20.000000,,2013-11-09 00:22:00,